Sligo Airport - TAF
(Terminal Area Forecast)

Issued at 04:21 UTC on Fri. 15-Nov-19

--- METARS(SA) ---

METAR EISG(SLIGO) 150400Z AUTO 02010KT CAVOK 06/01 Q1018 =

--- TAFS() ---

TAF EISG(SLIGO) 150200Z 1503/1512 01013KT 9999 SCT030 BKN045 =

--- SIGMETS(WS) ---

IE - No VALID SIGMETS/Warnings FOR THIS AREA

--- SIGMETS Volcanic(WV) ---

IE - No VALID SIGMETS/Warnings FOR THIS AREA

--- SIGMETS(WS) ---

UK - No VALID SIGMETS/Warnings FOR THIS AREA

Sligo Airport - METARs

Latest METARs for Sligo and Donegal Airports - updated every 30 mins